createdAt,value
2018-10-04T00:01:41.383Z,100271.80
2018-10-04T00:04:09.125Z,100276.30
2018-10-04T00:06:36.880Z,100269.62
2018-10-04T00:09:05.964Z,100268.28
2018-10-04T00:11:33.683Z,100275.59
2018-10-04T00:14:01.434Z,100262.11
2018-10-04T00:16:29.147Z,100254.84
2018-10-04T00:18:56.900Z,100252.85
2018-10-04T00:21:24.711Z,100256.91
2018-10-04T00:23:52.450Z,100259.11
2018-10-04T00:26:20.170Z,100258.95
2018-10-04T00:28:47.899Z,100272.70
2018-10-04T00:31:15.626Z,100276.77
2018-10-04T00:33:43.352Z,100271.64
2018-10-04T00:36:11.104Z,100269.77
2018-10-04T00:38:38.834Z,100267.11
2018-10-04T00:41:06.621Z,100265.61
2018-10-04T00:43:34.360Z,100264.51
2018-10-04T00:46:02.125Z,100271.06
2018-10-04T00:48:29.904Z,100271.92
2018-10-04T00:50:57.644Z,100275.16
2018-10-04T00:53:25.374Z,100291.86
2018-10-04T00:55:53.112Z,100295.20
2018-10-04T00:58:20.855Z,100305.73
2018-10-04T01:00:48.607Z,100307.84
2018-10-04T01:03:16.339Z,100307.55
2018-10-04T01:05:44.067Z,100306.66
2018-10-04T01:08:11.799Z,100314.10
2018-10-04T01:10:39.540Z,100319.42
2018-10-04T01:13:07.269Z,100314.76
2018-10-04T01:15:34.995Z,100324.14
2018-10-04T01:18:13.767Z,100328.67
2018-10-04T01:20:41.478Z,100328.10
2018-10-04T01:23:09.200Z,100330.50
2018-10-04T01:25:36.927Z,100334.38
2018-10-04T01:28:04.961Z,100335.52
2018-10-04T01:30:32.686Z,100332.94
2018-10-04T01:33:00.963Z,100342.80
2018-10-04T01:35:28.703Z,100350.64
2018-10-04T01:37:56.425Z,100349.31
2018-10-04T01:40:24.155Z,100351.48
2018-10-04T01:42:51.970Z,100356.91
2018-10-04T01:45:19.690Z,100364.62
2018-10-04T01:47:47.494Z,100359.30
2018-10-04T01:50:15.215Z,100360.62
2018-10-04T01:52:42.955Z,100367.83
2018-10-04T01:55:10.678Z,100380.32
2018-10-04T01:57:38.445Z,100376.22
2018-10-04T02:00:06.266Z,100384.02
2018-10-04T02:02:33.974Z,100393.23
2018-10-04T02:05:01.717Z,100390.65
2018-10-04T02:07:29.468Z,100392.28
2018-10-04T02:09:57.197Z,100392.48
2018-10-04T02:12:24.958Z,100396.66
2018-10-04T02:14:52.699Z,100397.48
2018-10-04T02:17:20.434Z,100397.02
2018-10-04T02:19:48.168Z,100394.81
2018-10-04T02:22:15.909Z,100388.59
2018-10-04T02:24:43.636Z,100393.70
2018-10-04T02:27:11.434Z,100394.45
2018-10-04T02:29:39.201Z,100393.11
2018-10-04T02:32:06.984Z,100401.59
2018-10-04T02:34:34.703Z,100405.36
2018-10-04T02:37:02.505Z,100404.22
2018-10-04T02:39:30.278Z,100406.11
2018-10-04T02:41:57.986Z,100404.34
2018-10-04T02:44:25.702Z,100400.20
2018-10-04T02:46:53.409Z,100400.30
2018-10-04T02:49:21.133Z,100402.70
2018-10-04T02:51:48.851Z,100405.33
2018-10-04T02:54:22.090Z,100408.64
2018-10-04T02:56:54.625Z,100405.84
2018-10-04T02:59:23.426Z,100406.43
2018-10-04T03:01:51.182Z,100400.34
2018-10-04T03:04:19.262Z,100406.78
2018-10-04T03:06:47.684Z,100402.31
2018-10-04T03:09:15.915Z,100404.20
2018-10-04T03:11:43.707Z,100408.38
2018-10-04T03:14:11.493Z,100404.00
2018-10-04T03:16:39.561Z,100415.19
2018-10-04T03:19:07.377Z,100412.14
2018-10-04T03:21:35.220Z,100415.63
2018-10-04T03:24:02.914Z,100422.41
2018-10-04T03:26:30.626Z,100427.39
2018-10-04T03:28:58.369Z,100433.39
2018-10-04T03:31:26.105Z,100440.27
2018-10-04T03:33:53.814Z,100438.16
2018-10-04T03:36:21.535Z,100438.94
2018-10-04T03:38:49.255Z,100450.14
2018-10-04T03:41:16.991Z,100444.41
2018-10-04T03:43:44.716Z,100450.40
2018-10-04T03:46:12.438Z,100451.91
2018-10-04T03:48:40.169Z,100447.13
2018-10-04T03:51:08.289Z,100454.70
2018-10-04T03:53:36.609Z,100453.44
2018-10-04T03:56:04.322Z,100460.36
2018-10-04T03:58:32.129Z,100465.60
2018-10-04T04:00:59.830Z,100466.97
2018-10-04T04:03:27.553Z,100463.13
2018-10-04T04:05:55.345Z,100464.41
2018-10-04T04:08:23.050Z,100465.45
2018-10-04T04:10:50.816Z,100461.77
2018-10-04T04:13:18.536Z,100469.15
2018-10-04T04:15:46.245Z,100466.56
2018-10-04T04:18:13.964Z,100469.38
2018-10-04T04:20:41.772Z,100477.63
2018-10-04T04:23:09.530Z,100485.57
2018-10-04T04:25:37.247Z,100487.49
2018-10-04T04:28:05.088Z,100488.20
2018-10-04T04:30:32.825Z,100492.53
2018-10-04T04:33:00.551Z,100488.46
2018-10-04T04:35:28.273Z,100495.03
2018-10-04T04:37:56.008Z,100499.22
2018-10-04T04:40:23.738Z,100491.73
2018-10-04T04:42:51.445Z,100495.89
2018-10-04T04:45:19.168Z,100502.23
2018-10-04T04:47:46.932Z,100499.92
2018-10-04T04:50:14.665Z,100510.14
2018-10-04T04:52:42.396Z,100513.94
2018-10-04T04:55:29.811Z,100508.63
2018-10-04T04:57:58.390Z,100519.62
2018-10-04T05:00:27.173Z,100520.20
2018-10-04T05:02:55.250Z,100514.84
2018-10-04T05:05:23.531Z,100529.05
2018-10-04T05:07:53.181Z,100530.79
2018-10-04T05:10:21.440Z,100536.00
2018-10-04T05:12:49.159Z,100531.50
2018-10-04T05:15:16.949Z,100541.02
2018-10-04T05:17:44.845Z,100548.94
2018-10-04T05:20:13.228Z,100552.45
2018-10-04T05:22:41.007Z,100554.09
2018-10-04T05:25:08.752Z,100551.05
2018-10-04T05:27:36.513Z,100563.44
2018-10-04T05:30:04.333Z,100564.51
2018-10-04T05:32:32.072Z,100565.91
2018-10-04T05:35:00.255Z,100571.52
2018-10-04T05:37:28.045Z,100579.13
2018-10-04T05:39:55.776Z,100584.09
2018-10-04T05:42:23.527Z,100586.81
2018-10-04T05:44:51.320Z,100588.53
2018-10-04T05:47:19.043Z,100587.05
2018-10-04T05:49:46.819Z,100588.53
2018-10-04T05:52:15.126Z,100586.56
2018-10-04T05:54:42.860Z,100588.91
2018-10-04T05:57:10.628Z,100592.87
2018-10-04T05:59:38.612Z,100610.53
2018-10-04T06:02:06.638Z,100607.17
2018-10-04T06:04:34.367Z,100602.83
2018-10-04T06:07:02.093Z,100608.61
2018-10-04T06:09:29.929Z,100606.52
2018-10-04T06:11:57.650Z,100604.47
2018-10-04T06:14:25.353Z,100615.72
2018-10-04T06:16:53.096Z,100617.86
2018-10-04T06:19:20.930Z,100608.94
2018-10-04T06:21:48.832Z,100622.14
2018-10-04T06:24:16.610Z,100623.66
2018-10-04T06:26:44.363Z,100621.05
2018-10-04T06:29:12.088Z,100623.53
2018-10-04T06:31:39.813Z,100624.66
2018-10-04T06:34:07.578Z,100634.48
2018-10-04T06:36:35.313Z,100638.93
2018-10-04T06:39:04.353Z,100637.19
2018-10-04T06:41:32.121Z,100638.22
2018-10-04T06:43:59.931Z,100644.37
2018-10-04T06:46:27.673Z,100639.33
2018-10-04T06:48:55.374Z,100647.98
2018-10-04T06:51:23.143Z,100643.77
2018-10-04T06:53:51.029Z,100652.59
2018-10-04T06:56:18.764Z,100660.08
2018-10-04T06:58:46.504Z,100662.21
2018-10-04T07:01:14.225Z,100662.91
2018-10-04T07:03:41.987Z,100662.41
2018-10-04T07:06:09.713Z,100664.94
2018-10-04T07:08:37.471Z,100661.75
2018-10-04T07:11:05.252Z,100665.53
2018-10-04T07:13:32.999Z,100666.71
2018-10-04T07:16:00.752Z,100658.16
2018-10-04T07:18:28.484Z,100659.93
2018-10-04T07:20:56.280Z,100658.16
2018-10-04T07:23:24.018Z,100659.33
2018-10-04T07:25:51.818Z,100653.93
2018-10-04T07:28:19.571Z,100657.27
2018-10-04T07:30:47.290Z,100666.19
2018-10-04T07:33:15.028Z,100658.43
2018-10-04T07:35:42.805Z,100657.56
2018-10-04T07:38:10.518Z,100668.09
2018-10-04T07:40:38.238Z,100666.77
2018-10-04T07:43:06.202Z,100664.80
2018-10-04T07:45:34.003Z,100661.67
2018-10-04T07:48:01.792Z,100664.53
2018-10-04T07:50:29.544Z,100664.14
2018-10-04T07:52:57.285Z,100662.84
2018-10-04T07:55:25.018Z,100658.75
2018-10-04T07:57:52.744Z,100658.78
2018-10-04T08:00:20.571Z,100667.70
2018-10-04T08:02:48.296Z,100667.62
2018-10-04T08:05:16.031Z,100669.23
2018-10-04T08:07:43.796Z,100670.28
2018-10-04T08:10:11.540Z,100664.20
2018-10-04T08:12:39.302Z,100664.37
2018-10-04T08:15:07.130Z,100663.61
2018-10-04T08:17:34.919Z,100661.22
2018-10-04T08:20:02.845Z,100671.55
2018-10-04T08:22:30.608Z,100670.69
2018-10-04T08:24:58.365Z,100659.52
2018-10-04T08:27:26.144Z,100659.73
2018-10-04T08:29:53.858Z,100649.78
2018-10-04T08:32:21.613Z,100644.46
2018-10-04T08:34:49.377Z,100637.63
2018-10-04T08:37:17.140Z,100649.05
2018-10-04T08:39:44.890Z,100651.48
2018-10-04T08:42:12.708Z,100644.78
2018-10-04T08:44:40.440Z,100635.73
2018-10-04T08:47:08.209Z,100638.80
2018-10-04T08:49:35.968Z,100634.75
2018-10-04T08:52:03.802Z,100635.91
2018-10-04T08:54:32.658Z,100637.14
2018-10-04T08:57:00.438Z,100641.45
2018-10-04T08:59:28.241Z,100644.11
2018-10-04T09:01:56.804Z,100640.59
2018-10-04T09:04:24.824Z,100644.98
2018-10-04T09:06:52.554Z,100637.98
2018-10-04T09:09:21.717Z,100639.65
2018-10-04T09:11:49.455Z,100645.45
2018-10-04T09:14:17.230Z,100642.91
2018-10-04T09:16:44.963Z,100635.56
2018-10-04T09:19:12.673Z,100645.38
2018-10-04T09:21:40.434Z,100646.77
2018-10-04T09:24:08.168Z,100645.28
2018-10-04T09:26:35.919Z,100644.36
2018-10-04T09:29:09.601Z,100642.05
2018-10-04T09:31:38.642Z,100630.43
2018-10-04T09:34:07.133Z,100628.81
2018-10-04T09:36:34.860Z,100639.88
2018-10-04T09:39:03.357Z,100633.20
2018-10-04T09:41:31.082Z,100640.35
2018-10-04T09:43:58.920Z,100638.37
2018-10-04T09:46:26.765Z,100628.74
2018-10-04T09:48:54.443Z,100635.33
2018-10-04T09:51:27.669Z,100631.16
2018-10-04T09:53:56.657Z,100635.44
2018-10-04T09:56:30.018Z,100634.44
2018-10-04T09:59:01.019Z,100637.48
2018-10-04T10:01:34.414Z,100627.41
2018-10-04T10:04:03.153Z,100621.89
2018-10-04T10:06:30.893Z,100622.20
2018-10-04T10:08:59.674Z,100626.85
2018-10-04T10:11:27.949Z,100622.24
2018-10-04T10:13:55.743Z,100615.14
2018-10-04T10:16:23.569Z,100621.03
2018-10-04T10:18:51.442Z,100611.43
2018-10-04T10:21:19.235Z,100609.45
2018-10-04T10:23:47.041Z,100607.41
2018-10-04T10:26:14.811Z,100604.98
2018-10-04T10:28:42.551Z,100602.19
2018-10-04T10:31:10.298Z,100594.30
2018-10-04T10:33:38.006Z,100592.44
2018-10-04T10:36:05.769Z,100591.23
2018-10-04T10:38:33.503Z,100586.22
2018-10-04T10:41:01.247Z,100575.30
2018-10-04T10:43:29.010Z,100572.79
2018-10-04T10:45:56.735Z,100567.95
2018-10-04T10:48:24.455Z,100569.61
2018-10-04T10:50:52.564Z,100569.96
2018-10-04T10:53:20.315Z,100570.84
2018-10-04T10:55:48.717Z,100574.62
2018-10-04T10:58:16.464Z,100563.31
2018-10-04T11:00:44.253Z,100570.21
2018-10-04T11:03:12.050Z,100561.83
2018-10-04T11:05:39.797Z,100562.69
2018-10-04T11:08:07.971Z,100558.09
2018-10-04T11:10:38.470Z,100559.17
2018-10-04T11:13:04.054Z,100559.80
2018-10-04T11:15:31.797Z,100560.45
2018-10-04T11:17:59.660Z,100554.63
2018-10-04T11:20:27.301Z,100550.73
2018-10-04T11:22:55.018Z,100546.25
2018-10-04T11:25:22.996Z,100549.17
2018-10-04T11:27:50.955Z,100555.98
2018-10-04T11:30:18.690Z,100545.14
2018-10-04T11:32:46.431Z,100539.09
2018-10-04T11:35:15.388Z,100532.44
2018-10-04T11:37:43.547Z,100530.62
2018-10-04T11:40:11.925Z,100532.91
2018-10-04T11:42:41.124Z,100531.72
2018-10-04T11:45:12.516Z,100537.98
2018-10-04T11:47:42.224Z,100528.55
2018-10-04T11:50:12.287Z,100524.31
2018-10-04T11:52:40.014Z,100531.82
2018-10-04T11:55:07.840Z,100528.19
2018-10-04T11:57:35.580Z,100529.78
2018-10-04T12:00:03.355Z,100529.66
2018-10-04T12:02:34.242Z,100518.45
2018-10-04T12:05:02.106Z,100528.30
2018-10-04T12:07:29.886Z,100526.98
2018-10-04T12:09:57.582Z,100523.08
2018-10-04T12:12:25.356Z,100523.81
2018-10-04T12:14:53.163Z,100521.38
2018-10-04T12:17:20.876Z,100516.02
2018-10-04T12:19:48.622Z,100514.20
2018-10-04T12:22:16.392Z,100518.22
2018-10-04T12:24:44.216Z,100513.21
2018-10-04T12:27:11.931Z,100509.20
2018-10-04T12:29:39.681Z,100514.55
2018-10-04T12:32:07.505Z,100507.59
2018-10-04T12:34:35.222Z,100509.31
2018-10-04T12:37:03.130Z,100509.45
2018-10-04T12:39:30.974Z,100507.97
2018-10-04T12:41:58.752Z,100512.09
2018-10-04T12:44:26.574Z,100513.91
2018-10-04T12:46:54.420Z,100503.11
2018-10-04T12:49:22.271Z,100513.09
2018-10-04T12:51:50.018Z,100505.54
2018-10-04T12:54:17.940Z,100506.64
2018-10-04T12:56:45.782Z,100511.98
2018-10-04T12:59:13.598Z,100512.36
2018-10-04T13:01:41.492Z,100504.34
2018-10-04T13:04:09.218Z,100501.66
2018-10-04T13:06:37.170Z,100503.72
2018-10-04T13:09:06.733Z,100507.73
2018-10-04T13:11:34.460Z,100500.56
2018-10-04T13:14:02.246Z,100497.89
2018-10-04T13:16:29.960Z,100494.70
2018-10-04T13:18:57.728Z,100492.41
2018-10-04T13:21:25.926Z,100491.58
2018-10-04T13:23:53.965Z,100488.15
2018-10-04T13:26:21.818Z,100487.29
2018-10-04T13:28:49.578Z,100487.66
2018-10-04T13:31:17.382Z,100491.06
2018-10-04T13:33:45.166Z,100484.75
2018-10-04T13:36:12.999Z,100484.03
2018-10-04T13:38:40.701Z,100496.45
2018-10-04T13:41:08.450Z,100495.24
2018-10-04T13:43:36.221Z,100495.97
2018-10-04T13:46:04.102Z,100488.28
2018-10-04T13:48:31.830Z,100491.81
2018-10-04T13:50:59.941Z,100498.40
2018-10-04T13:53:29.013Z,100492.30
2018-10-04T13:55:57.001Z,100497.41
2018-10-04T13:58:24.758Z,100494.49
2018-10-04T14:00:52.521Z,100492.67
2018-10-04T14:03:20.284Z,100490.23
2018-10-04T14:05:48.279Z,100491.13
2018-10-04T14:08:16.000Z,100491.47
2018-10-04T14:10:43.726Z,100492.67
2018-10-04T14:13:11.523Z,100494.73
2018-10-04T14:15:39.265Z,100491.95
2018-10-04T14:18:07.035Z,100476.63
2018-10-04T14:20:34.759Z,100487.56
2018-10-04T14:23:02.566Z,100482.72
2018-10-04T14:25:30.315Z,100485.88
2018-10-04T14:27:58.384Z,100483.17
2018-10-04T14:30:26.146Z,100487.42
2018-10-04T14:32:53.973Z,100492.81
2018-10-04T14:35:21.676Z,100485.13
2018-10-04T14:37:49.378Z,100493.90
2018-10-04T14:40:17.172Z,100496.09
2018-10-04T14:42:44.898Z,100487.69
2018-10-04T14:45:12.624Z,100488.44
2018-10-04T14:47:40.331Z,100494.52
2018-10-04T14:50:08.092Z,100486.60
2018-10-04T14:52:35.928Z,100489.65
2018-10-04T14:55:03.826Z,100492.83
2018-10-04T14:57:31.638Z,100495.45
2018-10-04T14:59:59.375Z,100493.53
2018-10-04T15:02:27.129Z,100495.09
2018-10-04T15:04:54.894Z,100492.80
2018-10-04T15:07:22.617Z,100495.83
2018-10-04T15:09:50.360Z,100495.47
2018-10-04T15:12:18.083Z,100499.82
2018-10-04T15:14:45.804Z,100506.77
2018-10-04T15:17:13.546Z,100500.30
2018-10-04T15:19:41.274Z,100502.38
2018-10-04T15:22:08.989Z,100505.75
2018-10-04T15:24:36.712Z,100509.77
2018-10-04T15:27:04.461Z,100514.39
2018-10-04T15:29:32.205Z,100520.95
2018-10-04T15:31:59.955Z,100523.12
2018-10-04T15:34:27.661Z,100525.89
2018-10-04T15:36:55.383Z,100524.38
2018-10-04T15:39:23.116Z,100531.68
2018-10-04T15:41:50.836Z,100535.48
2018-10-04T15:44:18.603Z,100534.45
2018-10-04T15:46:46.374Z,100536.13
2018-10-04T15:49:14.088Z,100538.45
2018-10-04T15:51:41.848Z,100536.05
2018-10-04T15:54:09.559Z,100546.25
2018-10-04T15:56:37.266Z,100543.59
2018-10-04T15:59:05.001Z,100555.98
2018-10-04T16:01:32.718Z,100556.05
2018-10-04T16:04:00.484Z,100557.00
2018-10-04T16:06:28.206Z,100557.39
2018-10-04T16:08:55.999Z,100561.44
2018-10-04T16:11:23.764Z,100565.55
2018-10-04T16:13:51.566Z,100563.23
2018-10-04T16:16:19.258Z,100569.52
2018-10-04T16:18:47.004Z,100569.36
2018-10-04T16:21:14.743Z,100578.55
2018-10-04T16:23:42.532Z,100576.60
2018-10-04T16:26:10.295Z,100587.86
2018-10-04T16:28:38.116Z,100581.57
2018-10-04T16:31:12.076Z,100586.02
2018-10-04T16:33:45.874Z,100587.50
2018-10-04T16:36:19.828Z,100589.84
2018-10-04T16:38:53.663Z,100602.26
2018-10-04T16:41:22.291Z,100606.31
2018-10-04T16:43:56.545Z,100613.94
2018-10-04T16:46:24.364Z,100616.50
2018-10-04T16:48:52.160Z,100615.95
2018-10-04T16:51:19.926Z,100623.68
2018-10-04T16:53:48.809Z,100630.05
2018-10-04T16:56:16.551Z,100628.55
2018-10-04T16:58:45.964Z,100629.15
2018-10-04T17:01:14.248Z,100634.78
2018-10-04T17:03:42.276Z,100635.36
2018-10-04T17:06:10.265Z,100641.48
2018-10-04T17:08:37.989Z,100640.55
2018-10-04T17:11:06.102Z,100640.59
2018-10-04T17:13:34.148Z,100650.58
2018-10-04T17:16:01.859Z,100655.52
2018-10-04T17:18:29.599Z,100655.76
2018-10-04T17:20:57.325Z,100657.94
2018-10-04T17:23:25.037Z,100655.39
2018-10-04T17:25:52.767Z,100660.17
2018-10-04T17:28:20.488Z,100657.28
2018-10-04T17:30:48.218Z,100658.55
2018-10-04T17:33:15.926Z,100659.99
2018-10-04T17:35:43.735Z,100665.41
2018-10-04T17:38:11.431Z,100666.33
2018-10-04T17:40:39.184Z,100673.61
2018-10-04T17:43:06.936Z,100675.19
2018-10-04T17:45:34.651Z,100676.88
2018-10-04T17:48:02.686Z,100687.92
2018-10-04T17:50:30.404Z,100687.43
2018-10-04T17:52:58.164Z,100689.47
2018-10-04T17:55:25.888Z,100696.69
2018-10-04T17:57:53.625Z,100698.20
2018-10-04T18:00:21.345Z,100704.65
2018-10-04T18:02:49.067Z,100707.20
2018-10-04T18:05:16.808Z,100706.36
2018-10-04T18:07:44.549Z,100709.09
2018-10-04T18:10:12.334Z,100711.68
2018-10-04T18:12:40.070Z,100705.45
2018-10-04T18:15:07.844Z,100719.61
2018-10-04T18:17:35.570Z,100720.67
2018-10-04T18:20:03.431Z,100723.82
2018-10-04T18:22:31.145Z,100726.52
2018-10-04T18:24:58.880Z,100729.75
2018-10-04T18:27:26.609Z,100736.58
2018-10-04T18:29:54.347Z,100734.45
2018-10-04T18:32:22.115Z,100743.91
2018-10-04T18:34:49.834Z,100743.34
2018-10-04T18:37:17.555Z,100743.34
2018-10-04T18:39:45.318Z,100746.31
2018-10-04T18:42:13.021Z,100744.55
2018-10-04T18:44:40.723Z,100753.07
2018-10-04T18:47:08.454Z,100762.63
2018-10-04T18:49:37.740Z,100760.17
2018-10-04T18:52:05.512Z,100774.09
2018-10-04T18:54:33.240Z,100776.61
2018-10-04T18:57:00.980Z,100786.23
2018-10-04T18:59:28.727Z,100782.78
2018-10-04T19:01:56.456Z,100787.02
2018-10-04T19:04:24.199Z,100782.20
2018-10-04T19:06:51.941Z,100785.69
2018-10-04T19:09:19.657Z,100792.18
2018-10-04T19:11:47.374Z,100796.80
2018-10-04T19:14:15.121Z,100799.66
2018-10-04T19:16:42.869Z,100808.65
2018-10-04T19:19:10.627Z,100813.80
2018-10-04T19:21:38.326Z,100818.80
2018-10-04T19:24:06.062Z,100818.14
2018-10-04T19:26:33.796Z,100820.19
2018-10-04T19:29:01.581Z,100827.75
2018-10-04T19:31:29.265Z,100827.70
2018-10-04T19:33:56.994Z,100832.95
2018-10-04T19:36:24.885Z,100836.59
2018-10-04T19:38:52.608Z,100829.25
2018-10-04T19:41:20.348Z,100835.84
2018-10-04T19:43:48.071Z,100837.50
2018-10-04T19:46:15.796Z,100847.09
2018-10-04T19:48:43.860Z,100840.39
2018-10-04T19:51:11.672Z,100845.69
2018-10-04T19:53:39.616Z,100844.13
2018-10-04T19:56:07.426Z,100851.05
2018-10-04T19:58:35.196Z,100854.66
2018-10-04T20:01:02.991Z,100865.47
2018-10-04T20:03:30.966Z,100857.38
2018-10-04T20:05:59.569Z,100857.34
2018-10-04T20:08:27.323Z,100856.61
2018-10-04T20:10:55.060Z,100858.45
2018-10-04T20:13:22.816Z,100863.30
2018-10-04T20:15:50.718Z,100872.69
2018-10-04T20:18:18.471Z,100872.42
2018-10-04T20:20:46.397Z,100874.62
2018-10-04T20:23:15.709Z,100870.96
2018-10-04T20:25:43.853Z,100873.17
2018-10-04T20:28:11.877Z,100873.80
2018-10-04T20:30:39.522Z,100877.47
2018-10-04T20:33:07.249Z,100876.80
2018-10-04T20:35:34.962Z,100876.14
2018-10-04T20:38:02.687Z,100871.90
2018-10-04T20:40:30.420Z,100879.59
2018-10-04T20:42:58.167Z,100890.14
2018-10-04T20:45:25.903Z,100890.33
2018-10-04T20:47:53.664Z,100895.70
2018-10-04T20:50:21.404Z,100893.64
2018-10-04T20:52:49.131Z,100896.62
2018-10-04T20:55:16.863Z,100897.81
2018-10-04T20:57:44.567Z,100896.08
2018-10-04T21:00:12.302Z,100897.40
2018-10-04T21:02:40.034Z,100901.91
2018-10-04T21:05:07.803Z,100906.95
2018-10-04T21:07:35.529Z,100909.05
2018-10-04T21:10:03.292Z,100904.51
2018-10-04T21:12:31.006Z,100910.91
2018-10-04T21:14:58.727Z,100910.17
2018-10-04T21:17:26.454Z,100915.21
2018-10-04T21:19:54.172Z,100915.94
2018-10-04T21:22:21.903Z,100909.94
2018-10-04T21:24:49.606Z,100910.79
2018-10-04T21:27:17.305Z,100921.46
2018-10-04T21:29:45.036Z,100912.25
2018-10-04T21:32:12.764Z,100915.16
2018-10-04T21:34:40.474Z,100925.80
2018-10-04T21:37:08.173Z,100923.22
2018-10-04T21:39:35.881Z,100921.52
2018-10-04T21:42:03.693Z,100911.53
2018-10-04T21:44:31.421Z,100922.09
2018-10-04T21:46:59.154Z,100918.80
2018-10-04T21:49:26.879Z,100924.95
2018-10-04T21:51:54.570Z,100928.35
2018-10-04T21:54:22.252Z,100928.59
2018-10-04T21:56:49.964Z,100931.92
2018-10-04T21:59:17.730Z,100935.08
2018-10-04T22:01:45.436Z,100932.97
2018-10-04T22:04:13.145Z,100938.73
2018-10-04T22:06:40.874Z,100939.02
2018-10-04T22:09:09.432Z,100940.75
2018-10-04T22:11:37.122Z,100940.92
2018-10-04T22:14:04.852Z,100940.72
2018-10-04T22:16:32.539Z,100934.17
2018-10-04T22:19:00.274Z,100935.86
2018-10-04T22:21:27.964Z,100941.75
2018-10-04T22:23:55.642Z,100945.81
2018-10-04T22:26:23.336Z,100950.20
2018-10-04T22:28:51.009Z,100953.08
2018-10-04T22:31:18.720Z,100957.30
2018-10-04T22:33:46.394Z,100956.71
2018-10-04T22:36:14.109Z,100963.69
2018-10-04T22:38:41.791Z,100963.75
2018-10-04T22:41:09.743Z,100962.78
2018-10-04T22:43:37.447Z,100968.52
2018-10-04T22:46:05.162Z,100974.83
2018-10-04T22:48:32.894Z,100974.13
2018-10-04T22:51:00.570Z,100971.84
2018-10-04T22:53:28.260Z,100975.11
2018-10-04T22:55:55.955Z,100975.87
2018-10-04T22:58:23.629Z,100975.41
2018-10-04T23:00:51.342Z,100967.90
2018-10-04T23:03:19.030Z,100974.97
2018-10-04T23:05:46.720Z,100964.22
2018-10-04T23:08:14.394Z,100961.42
2018-10-04T23:10:42.098Z,100970.77
2018-10-04T23:13:09.844Z,100978.81
2018-10-04T23:15:37.544Z,100970.41
2018-10-04T23:18:05.261Z,100967.56
2018-10-04T23:20:32.976Z,100971.59
2018-10-04T23:23:00.704Z,100977.73
2018-10-04T23:25:28.433Z,100976.49
2018-10-04T23:27:56.154Z,100972.02
2018-10-04T23:30:23.882Z,100973.92
2018-10-04T23:32:51.599Z,100977.88
2018-10-04T23:35:19.324Z,100982.45
2018-10-04T23:37:47.041Z,100982.73
2018-10-04T23:40:14.741Z,100980.69
2018-10-04T23:42:42.465Z,100981.45
2018-10-04T23:45:10.163Z,100978.05
2018-10-04T23:47:37.865Z,100986.84
2018-10-04T23:50:05.726Z,100986.67
2018-10-04T23:52:33.447Z,100979.20
2018-10-04T23:55:01.155Z,100977.60
2018-10-04T23:57:28.873Z,100978.44
2018-10-04T23:59:56.615Z,100976.31
